createdAt,value
2019-01-09T00:00:46.621Z,99.90
2019-01-09T00:04:51.576Z,99.90
2019-01-09T00:08:57.001Z,99.90
2019-01-09T00:13:02.015Z,99.90
2019-01-09T00:17:07.126Z,99.90
2019-01-09T00:21:12.218Z,99.90
2019-01-09T00:25:17.420Z,99.90
2019-01-09T00:29:22.355Z,99.90
2019-01-09T00:33:27.410Z,99.90
2019-01-09T00:37:32.471Z,99.90
2019-01-09T00:41:37.479Z,99.90
2019-01-09T00:45:42.792Z,99.90
2019-01-09T00:49:47.849Z,99.90
2019-01-09T00:53:53.040Z,99.90
2019-01-09T00:57:58.072Z,99.90
2019-01-09T01:02:39.727Z,99.90
2019-01-09T01:07:09.672Z,99.90
2019-01-09T01:12:25.237Z,99.90
2019-01-09T01:17:05.134Z,99.90
2019-01-09T01:21:28.052Z,99.90
2019-01-09T01:26:17.550Z,99.90
2019-01-09T01:31:08.112Z,99.90
2019-01-09T01:35:39.582Z,99.90
2019-01-09T01:40:21.247Z,99.90
2019-01-09T01:44:58.865Z,99.90
2019-01-09T01:49:21.935Z,99.90
2019-01-09T01:54:03.582Z,99.90
2019-01-09T01:58:47.585Z,99.90
2019-01-09T02:03:31.853Z,99.90
2019-01-09T02:08:05.594Z,99.90
2019-01-09T02:12:38.910Z,99.90
2019-01-09T02:17:18.141Z,99.90
2019-01-09T02:21:34.764Z,99.90
2019-01-09T02:26:21.488Z,99.90
2019-01-09T02:31:01.441Z,99.90
2019-01-09T02:35:06.525Z,99.90
2019-01-09T02:39:11.542Z,99.90
2019-01-09T02:43:16.451Z,99.90
2019-01-09T02:47:21.510Z,99.90
2019-01-09T02:51:26.569Z,99.90
2019-01-09T02:55:31.483Z,99.90
2019-01-09T02:59:36.447Z,99.90
2019-01-09T03:03:41.509Z,99.90
2019-01-09T03:07:46.472Z,99.90
2019-01-09T03:11:51.504Z,99.90
2019-01-09T03:15:56.718Z,99.90
2019-01-09T03:20:01.674Z,99.90
2019-01-09T03:24:07.636Z,99.90
2019-01-09T03:28:12.579Z,99.90
2019-01-09T03:32:17.711Z,99.90
2019-01-09T03:36:32.369Z,99.90
2019-01-09T03:40:29.395Z,99.90
2019-01-09T03:44:34.333Z,99.90
2019-01-09T03:48:39.359Z,99.90
2019-01-09T03:52:44.285Z,99.90
2019-01-09T03:56:50.308Z,99.90
2019-01-09T04:00:55.225Z,99.90
2019-01-09T04:05:00.278Z,99.90
2019-01-09T04:09:06.736Z,99.90
2019-01-09T04:13:11.709Z,99.90
2019-01-09T04:17:17.241Z,99.90
2019-01-09T04:21:22.157Z,99.90
2019-01-09T04:25:28.236Z,99.90
2019-01-09T04:29:33.941Z,99.90
2019-01-09T04:33:38.854Z,99.90
2019-01-09T04:37:43.908Z,99.90
2019-01-09T04:41:48.808Z,99.90
2019-01-09T04:45:53.803Z,99.90
2019-01-09T04:49:58.851Z,99.90
2019-01-09T04:54:03.759Z,99.90
2019-01-09T04:58:08.867Z,99.90
2019-01-09T05:02:13.780Z,99.90
2019-01-09T05:06:18.728Z,99.90
2019-01-09T05:10:23.761Z,99.90
2019-01-09T05:14:28.663Z,99.90
2019-01-09T05:18:33.823Z,99.90
2019-01-09T05:22:38.742Z,99.90
2019-01-09T05:26:43.650Z,99.90
2019-01-09T05:30:48.622Z,99.90
2019-01-09T05:34:53.555Z,99.90
2019-01-09T05:39:00.614Z,99.90
2019-01-09T05:43:05.521Z,99.90
2019-01-09T05:47:10.468Z,99.90
2019-01-09T05:51:15.605Z,99.90
2019-01-09T05:55:20.500Z,99.90
2019-01-09T05:59:27.741Z,99.90
2019-01-09T06:03:32.635Z,99.90
2019-01-09T06:07:37.749Z,99.90
2019-01-09T06:11:42.732Z,99.90
2019-01-09T06:15:47.817Z,99.90
2019-01-09T06:19:53.055Z,99.90
2019-01-09T06:23:58.292Z,99.90
2019-01-09T06:28:03.390Z,99.90
2019-01-09T06:32:08.553Z,99.90
2019-01-09T06:36:13.541Z,99.90
2019-01-09T06:40:18.474Z,99.90
2019-01-09T06:44:23.581Z,99.90
2019-01-09T06:48:28.522Z,99.90
2019-01-09T06:52:33.501Z,99.90
2019-01-09T06:56:38.480Z,99.90
2019-01-09T07:00:43.567Z,99.90
2019-01-09T07:04:49.455Z,99.90
2019-01-09T07:08:54.461Z,99.90
2019-01-09T07:12:59.692Z,99.90
2019-01-09T07:17:04.779Z,99.90
2019-01-09T07:21:09.733Z,99.90
2019-01-09T07:25:14.666Z,99.90
2019-01-09T07:29:19.723Z,99.90
2019-01-09T07:33:24.757Z,99.90
2019-01-09T07:37:29.817Z,99.90
2019-01-09T07:41:34.811Z,99.90
2019-01-09T07:45:39.771Z,99.90
2019-01-09T07:49:44.775Z,99.90
2019-01-09T07:53:50.002Z,99.90
2019-01-09T07:57:54.933Z,99.90
2019-01-09T08:01:59.867Z,99.90
2019-01-09T08:06:04.757Z,99.90
2019-01-09T08:10:11.515Z,99.90
2019-01-09T08:14:16.452Z,99.90
2019-01-09T08:18:21.371Z,99.90
2019-01-09T08:22:26.392Z,99.90
2019-01-09T08:26:31.415Z,99.90
2019-01-09T08:30:36.340Z,99.90
2019-01-09T08:34:41.816Z,99.90
2019-01-09T08:38:46.898Z,99.90
2019-01-09T08:42:52.347Z,99.90
2019-01-09T08:46:57.295Z,99.90
2019-01-09T08:51:02.197Z,99.90
2019-01-09T08:55:08.827Z,99.90
2019-01-09T08:59:13.934Z,99.90
2019-01-09T09:03:18.853Z,99.90
2019-01-09T09:07:26.007Z,99.90
2019-01-09T09:11:31.179Z,99.90
2019-01-09T09:15:36.220Z,99.90
2019-01-09T09:19:41.196Z,99.90
2019-01-09T09:23:46.427Z,99.90
2019-01-09T09:27:51.380Z,99.90
2019-01-09T09:31:56.423Z,99.90
2019-01-09T09:36:01.376Z,99.90
2019-01-09T09:40:07.456Z,99.90
2019-01-09T09:44:12.380Z,99.90
2019-01-09T09:48:17.319Z,99.90
2019-01-09T09:52:22.284Z,99.90
2019-01-09T09:56:27.381Z,99.90
2019-01-09T10:00:32.357Z,99.60
2019-01-09T10:04:37.289Z,96.00
2019-01-09T10:08:42.401Z,97.20
2019-01-09T10:12:47.349Z,95.70
2019-01-09T10:16:52.261Z,92.00
2019-01-09T10:20:57.803Z,91.90
2019-01-09T10:25:02.791Z,90.50
2019-01-09T10:29:08.114Z,92.30
2019-01-09T10:33:13.124Z,88.30
2019-01-09T10:37:18.075Z,85.60
2019-01-09T10:41:23.028Z,79.70
2019-01-09T10:45:28.065Z,74.50
2019-01-09T10:49:33.159Z,70.10
2019-01-09T10:53:40.307Z,68.10
2019-01-09T10:57:47.904Z,64.50
2019-01-09T11:01:55.262Z,60.20
2019-01-09T11:06:03.402Z,63.80
2019-01-09T11:10:10.454Z,61.10
2019-01-09T11:14:16.548Z,62.10
2019-01-09T11:18:21.414Z,62.90
2019-01-09T11:22:26.392Z,57.60
2019-01-09T11:26:31.494Z,56.30
2019-01-09T11:30:36.430Z,54.30
2019-01-09T11:34:41.484Z,58.10
2019-01-09T11:38:46.372Z,52.90
2019-01-09T11:42:51.350Z,49.50
2019-01-09T11:46:56.386Z,50.10
2019-01-09T11:51:01.259Z,52.10
2019-01-09T11:55:07.954Z,53.10
2019-01-09T11:59:12.996Z,51.50
2019-01-09T12:03:18.000Z,52.30
2019-01-09T12:07:24.747Z,52.20
2019-01-09T12:11:31.528Z,57.50
2019-01-09T12:15:37.617Z,54.90
2019-01-09T12:19:42.633Z,50.70
2019-01-09T12:23:47.967Z,50.90
2019-01-09T12:27:52.924Z,52.50
2019-01-09T12:31:58.283Z,53.10
2019-01-09T12:36:03.243Z,52.70
2019-01-09T12:40:08.547Z,53.90
2019-01-09T12:44:13.629Z,52.50
2019-01-09T12:48:18.535Z,52.70
2019-01-09T12:52:23.639Z,51.70
2019-01-09T12:56:28.579Z,52.00
2019-01-09T13:00:33.488Z,56.50
2019-01-09T13:04:38.564Z,58.50
2019-01-09T13:08:43.522Z,57.20
2019-01-09T13:12:48.557Z,56.30
2019-01-09T13:16:53.575Z,61.30
2019-01-09T13:20:58.797Z,60.90
2019-01-09T13:25:03.917Z,64.50
2019-01-09T13:29:09.911Z,63.00
2019-01-09T13:33:14.956Z,64.30
2019-01-09T13:37:19.996Z,64.70
2019-01-09T13:41:25.018Z,66.20
2019-01-09T13:45:30.159Z,60.20
2019-01-09T13:49:35.077Z,57.30
2019-01-09T13:53:41.247Z,56.50
2019-01-09T13:57:46.202Z,58.60
2019-01-09T14:01:51.236Z,54.20
2019-01-09T14:05:56.308Z,57.60
2019-01-09T14:10:01.243Z,56.00
2019-01-09T14:14:06.384Z,57.10
2019-01-09T14:18:11.363Z,57.00
2019-01-09T14:22:16.267Z,55.80
2019-01-09T14:26:21.459Z,57.00
2019-01-09T14:30:28.519Z,58.00
2019-01-09T14:34:33.424Z,56.90
2019-01-09T14:38:38.348Z,56.70
2019-01-09T14:42:43.368Z,58.90
2019-01-09T14:46:48.315Z,56.60
2019-01-09T14:50:53.339Z,56.60
2019-01-09T14:54:58.419Z,56.90
2019-01-09T14:59:03.345Z,58.70
2019-01-09T15:03:08.306Z,58.90
2019-01-09T15:07:15.374Z,56.80
2019-01-09T15:11:20.205Z,58.50
2019-01-09T15:15:25.500Z,60.80
2019-01-09T15:19:30.407Z,61.20
2019-01-09T15:23:35.363Z,61.30
2019-01-09T15:27:40.448Z,58.60
2019-01-09T15:31:45.376Z,62.60
2019-01-09T15:35:50.337Z,64.30
2019-01-09T15:39:55.443Z,65.70
2019-01-09T15:44:00.423Z,67.30
2019-01-09T15:48:05.476Z,67.20
2019-01-09T15:52:10.645Z,68.40
2019-01-09T15:56:15.575Z,65.30
2019-01-09T16:00:23.285Z,69.10
2019-01-09T16:04:28.345Z,69.50
2019-01-09T16:08:33.296Z,70.40
2019-01-09T16:12:38.420Z,69.50
2019-01-09T16:16:43.362Z,72.90
2019-01-09T16:20:48.353Z,74.80
2019-01-09T16:24:53.515Z,74.50
2019-01-09T16:28:58.489Z,72.90
2019-01-09T16:33:03.453Z,72.70
2019-01-09T16:37:08.392Z,73.30
2019-01-09T16:41:13.358Z,73.40
2019-01-09T16:45:18.354Z,69.40
2019-01-09T16:49:27.795Z,70.00
2019-01-09T16:53:29.935Z,70.60
2019-01-09T16:57:35.030Z,64.70
2019-01-09T17:01:40.012Z,65.30
2019-01-09T17:05:45.543Z,65.30
2019-01-09T17:09:50.477Z,63.70
2019-01-09T17:13:55.446Z,64.60
2019-01-09T17:18:00.439Z,65.40
2019-01-09T17:22:05.605Z,67.40
2019-01-09T17:26:10.587Z,68.00
2019-01-09T17:30:24.028Z,62.40
2019-01-09T17:34:28.944Z,63.40
2019-01-09T17:38:33.885Z,64.90
2019-01-09T17:42:39.267Z,64.10
2019-01-09T17:46:44.827Z,65.30
2019-01-09T17:50:50.158Z,63.20
2019-01-09T17:54:55.713Z,65.30
2019-01-09T17:59:01.031Z,65.70
2019-01-09T18:03:06.184Z,68.50
2019-01-09T18:07:11.691Z,68.80
2019-01-09T18:11:16.873Z,69.20
2019-01-09T18:15:23.372Z,71.00
2019-01-09T18:19:28.402Z,71.40
2019-01-09T18:23:33.820Z,72.20
2019-01-09T18:27:39.119Z,73.60
2019-01-09T18:32:00.855Z,74.50
2019-01-09T18:36:36.312Z,74.40
2019-01-09T18:40:59.002Z,75.60
2019-01-09T18:45:30.976Z,76.50
2019-01-09T18:50:12.955Z,77.10
2019-01-09T18:54:18.207Z,77.70
2019-01-09T18:58:23.283Z,79.10
2019-01-09T19:02:28.358Z,79.00
2019-01-09T19:06:35.432Z,79.20
2019-01-09T19:10:40.780Z,78.90
2019-01-09T19:14:46.271Z,78.60
2019-01-09T19:18:51.636Z,79.40
2019-01-09T19:22:57.188Z,78.00
2019-01-09T19:27:02.108Z,79.00
2019-01-09T19:31:07.432Z,79.30
2019-01-09T19:35:12.615Z,79.90
2019-01-09T19:39:17.743Z,79.60
2019-01-09T19:43:22.847Z,80.40
2019-01-09T19:47:28.209Z,80.70
2019-01-09T19:51:33.402Z,80.30
2019-01-09T19:55:38.839Z,80.90
2019-01-09T19:59:45.934Z,80.30
2019-01-09T20:03:51.237Z,80.10
2019-01-09T20:07:57.688Z,80.60
2019-01-09T20:12:03.489Z,81.00
2019-01-09T20:16:08.904Z,81.50
2019-01-09T20:20:15.733Z,80.70
2019-01-09T20:24:21.600Z,81.10
2019-01-09T20:28:27.147Z,81.90
2019-01-09T20:32:32.754Z,81.80
2019-01-09T20:36:38.441Z,81.90
2019-01-09T20:40:43.732Z,81.60
2019-01-09T20:44:49.687Z,82.60
2019-01-09T20:48:55.276Z,82.70
2019-01-09T20:53:00.434Z,82.20
2019-01-09T20:57:07.119Z,82.70
2019-01-09T21:01:12.189Z,81.30
2019-01-09T21:05:20.826Z,82.50
2019-01-09T21:09:25.960Z,83.80
2019-01-09T21:13:31.276Z,83.80
2019-01-09T21:17:36.306Z,83.60
2019-01-09T21:21:41.729Z,83.80
2019-01-09T21:25:46.929Z,83.90
2019-01-09T21:29:52.791Z,83.90
2019-01-09T21:33:57.759Z,84.00
2019-01-09T21:38:03.334Z,84.00
2019-01-09T21:42:10.274Z,84.10
2019-01-09T21:46:17.419Z,83.90
2019-01-09T21:50:25.230Z,83.90
2019-01-09T21:54:31.893Z,84.00
2019-01-09T21:58:36.842Z,84.80
2019-01-09T22:02:41.755Z,84.10
2019-01-09T22:06:46.774Z,84.70
2019-01-09T22:10:51.978Z,85.50
2019-01-09T22:14:57.351Z,85.30
2019-01-09T22:19:02.282Z,85.60
2019-01-09T22:23:07.366Z,86.10
2019-01-09T22:27:12.377Z,86.10
2019-01-09T22:31:17.320Z,85.10
2019-01-09T22:35:23.390Z,86.20
2019-01-09T22:39:28.436Z,86.10
2019-01-09T22:43:33.380Z,85.60
2019-01-09T22:47:38.635Z,86.70
2019-01-09T22:51:45.843Z,87.20
2019-01-09T22:55:50.085Z,87.20
2019-01-09T22:59:55.212Z,87.50
2019-01-09T23:04:00.330Z,87.30
2019-01-09T23:08:05.381Z,87.90
2019-01-09T23:12:10.610Z,88.30
2019-01-09T23:16:15.816Z,88.90
2019-01-09T23:20:20.845Z,88.60
2019-01-09T23:24:27.969Z,88.40
2019-01-09T23:28:33.095Z,89.80
2019-01-09T23:32:38.546Z,89.40
2019-01-09T23:36:43.558Z,89.90
2019-01-09T23:40:48.576Z,90.00
2019-01-09T23:44:53.475Z,90.00
2019-01-09T23:48:58.564Z,90.10
2019-01-09T23:53:03.598Z,90.30
2019-01-09T23:57:08.539Z,90.10
